Observation data for White River Lake on 12/13/2019      Previous  Date       Current Mesonet Observations  Soil Data  Daily Summary Page  Observations in Plain Language
KWVS 130600Z 24005KT 06/M02 A2995 RMK A01 T00641017  RH  057%=      5-min Rain = 0
KWVS 130605Z 24005KT 06/M02 A2995 RMK A01 T00631016  RH  057%=      5-min Rain = 0
KWVS 130610Z 25004KT 06/M02 A2995 RMK A01 T00641017  RH  057%=      5-min Rain = 0
KWVS 130615Z 26005KT 06/M02 A2995 RMK A01 T00601017  RH  058%=      5-min Rain = 0
KWVS 130620Z 26004KT 06/M02 A2996 RMK A01 T00561017  RH  060%=      5-min Rain = 0
KWVS 130625Z 27003KT 06/M02 A2995 RMK A01 T00571017  RH  059%=      5-min Rain = 0
KWVS 130630Z 26003KT 06/M02 A2995 RMK A01 T00611016  RH  058%=      5-min Rain = 0
KWVS 130635Z 28003KT 06/M02 A2995 RMK A01 T00601016  RH  059%=      5-min Rain = 0
KWVS 130640Z 28003KT 07/M02 A2995 RMK A01 T00681015  RH  056%=      5-min Rain = 0
KWVS 130645Z 29002KT 07/M02 A2994 RMK A01 T00721015  RH  054%=      5-min Rain = 0
KWVS 130650Z 30002KT 07/M02 A2994 RMK A01 T00721016  RH  054%=      5-min Rain = 0
KWVS 130655Z 30003KT 07/M02 A2993 RMK A01 T00671017  RH  056%=      5-min Rain = 0
KWVS 130700Z 31003KT 06/M02 A2993 RMK A01 T00551020  RH  059%=      5-min Rain = 0
KWVS 130705Z 33003KT 04/M02 A2993 RMK A01 T00371022  RH  066%=      5-min Rain = 0
KWVS 130710Z 36004KT 03/M02 A2993 RMK A01 T00261021  RH  072%=      5-min Rain = 0
KWVS 130715Z 00005KT 03/M02 A2993 RMK A01 T00281019  RH  072%=      5-min Rain = 0
KWVS 130720Z 34006KT 03/M02 A2993 RMK A01 T00281021  RH  071%=      5-min Rain = 0
KWVS 130725Z 34005KT 03/M02 A2992 RMK A01 T00271020  RH  072%=      5-min Rain = 0
KWVS 130730Z 34005KT 03/M02 A2992 RMK A01 T00281020  RH  071%=      5-min Rain = 0
KWVS 130735Z 33006KT 03/M02 A2992 RMK A01 T00341019  RH  069%=      5-min Rain = 0
KWVS 130740Z 33005KT 03/M02 A2992 RMK A01 T00331019  RH  069%=      5-min Rain = 0
KWVS 130745Z 32006KT 03/M02 A2992 RMK A01 T00301020  RH  070%=      5-min Rain = 0
KWVS 130750Z 32007KT 03/M02 A2993 RMK A01 T00321019  RH  070%=      5-min Rain = 0
KWVS 130755Z 33008KT 03/M02 A2993 RMK A01 T00331019  RH  070%=      5-min Rain = 0
KWVS 130800Z 32008KT 03/M02 A2993 RMK A01 T00331018  RH  070%=      5-min Rain = 0
KWVS 130805Z 31008KT 03/M02 A2992 RMK A01 T00311018  RH  070%=      5-min Rain = 0
KWVS 130810Z 31008KT 03/M02 A2993 RMK A01 T00311018  RH  070%=      5-min Rain = 0
KWVS 130815Z 31007KT 03/M02 A2993 RMK A01 T00311018  RH  071%=      5-min Rain = 0
KWVS 130820Z 31006KT 03/M02 A2992 RMK A01 T00321018  RH  071%=      5-min Rain = 0
KWVS 130825Z 31005KT 04/M02 A2991 RMK A01 T00371019  RH  068%=      5-min Rain = 0
KWVS 130830Z 31005KT 03/M02 A2992 RMK A01 T00321021  RH  069%=      5-min Rain = 0
KWVS 130835Z 32005KT 03/M02 A2992 RMK A01 T00311020  RH  070%=      5-min Rain = 0
KWVS 130840Z 32007KT 03/M02 A2991 RMK A01 T00321020  RH  069%=      5-min Rain = 0
KWVS 130845Z 32007KT 03/M02 A2991 RMK A01 T00341021  RH  068%=      5-min Rain = 0
KWVS 130850Z 31006KT 03/M02 A2991 RMK A01 T00301022  RH  069%=      5-min Rain = 0
KWVS 130855Z 32006KT 03/M02 A2992 RMK A01 T00271021  RH  071%=      5-min Rain = 0
KWVS 130900Z 30006KT 03/M02 A2992 RMK A01 T00301021  RH  070%=      5-min Rain = 0
KWVS 130905Z 31006KT 03/M02 A2992 RMK A01 T00321021  RH  069%=      5-min Rain = 0
KWVS 130910Z 31006KT 04/M02 A2992 RMK A01 T00351020  RH  067%=      5-min Rain = 0
KWVS 130915Z 31007KT 04/M02 A2992 RMK A01 T00421020  RH  065%=      5-min Rain = 0
KWVS 130920Z 31007KT 04/M02 A2992 RMK A01 T00391019  RH  066%=      5-min Rain = 0
KWVS 130925Z 32008KT 04/M02 A2991 RMK A01 T00371021  RH  067%=      5-min Rain = 0
KWVS 130930Z 31009KT 04/M02 A2991 RMK A01 T00361021  RH  067%=      5-min Rain = 0
KWVS 130935Z 31009KT 04/M02 A2992 RMK A01 T00351021  RH  067%=      5-min Rain = 0
KWVS 130940Z 32008KT 04/M02 A2991 RMK A01 T00401022  RH  064%=      5-min Rain = 0
KWVS 130945Z 32007KT 04/M02 A2991 RMK A01 T00381024  RH  064%=      5-min Rain = 0
KWVS 130950Z 31007KT 03/M02 A2991 RMK A01 T00341024  RH  066%=      5-min Rain = 0
KWVS 130955Z 32007KT 03/M03 A2991 RMK A01 T00311025  RH  067%=      5-min Rain = 0
KWVS 131000Z 31006KT 03/M03 A2991 RMK A01 T00301025  RH  067%=      5-min Rain = 0
KWVS 131005Z 31006KT 03/M03 A2991 RMK A01 T00301025  RH  067%=      5-min Rain = 0
KWVS 131010Z 32006KT 03/M03 A2991 RMK A01 T00321026  RH  066%=      5-min Rain = 0
KWVS 131015Z 31005KT 03/M03 A2991 RMK A01 T00311027  RH  066%=      5-min Rain = 0
KWVS 131020Z 32005KT 03/M03 A2991 RMK A01 T00291027  RH  067%=      5-min Rain = 0
KWVS 131025Z 32006KT 03/M03 A2991 RMK A01 T00271027  RH  068%=      5-min Rain = 0
KWVS 131030Z 31006KT 03/M03 A2991 RMK A01 T00271027  RH  068%=      5-min Rain = 0
KWVS 131035Z 31007KT 03/M03 A2991 RMK A01 T00271027  RH  068%=      5-min Rain = 0
KWVS 131040Z 30010KT 03/M03 A2991 RMK A01 T00271027  RH  068%=      5-min Rain = 0
KWVS 131045Z 31011KT 03/M03 A2991 RMK A01 T00261027  RH  068%=      5-min Rain = 0
KWVS 131050Z 31012KT 03/M03 A2991 RMK A01 T00261027  RH  068%=      5-min Rain = 0
KWVS 131055Z 32013KT 03/M03 A2991 RMK A01 T00321028  RH  066%=      5-min Rain = 0
KWVS 131100Z 31012KT 03/M03 A2991 RMK A01 T00341028  RH  064%=      5-min Rain = 0
KWVS 131105Z 31012KT 04/M03 A2991 RMK A01 T00351028  RH  064%=      5-min Rain = 0
KWVS 131110Z 32013KT 04/M03 A2991 RMK A01 T00361028  RH  063%=      5-min Rain = 0
KWVS 131115Z 32012KT 04/M03 A2991 RMK A01 T00361028  RH  063%=      5-min Rain = 0
KWVS 131120Z 32012KT 04/M03 A2991 RMK A01 T00361028  RH  063%=      5-min Rain = 0
KWVS 131125Z 32011KT 04/M03 A2991 RMK A01 T00381028  RH  063%=      5-min Rain = 0
KWVS 131130Z 33010KT 04/M03 A2991 RMK A01 T00381028  RH  062%=      5-min Rain = 0
KWVS 131135Z 34010KT 04/M03 A299 RMK A01 T00361028  RH  063%=      5-min Rain = 0
KWVS 131140Z 34010KT 03/M03 A299 RMK A01 T00331029  RH  064%=      5-min Rain = 0
KWVS 131145Z 33009KT 04/M03 A299 RMK A01 T00361028  RH  063%=      5-min Rain = 0
KWVS 131150Z 33009KT 04/M03 A299 RMK A01 T00381028  RH  062%=      5-min Rain = 0
KWVS 131155Z 33012KT 04/M03 A2991 RMK A01 T00391028  RH  062%=      5-min Rain = 0
KWVS 131200Z 32011KT 04/M03 A2991 RMK A01 T00371029  RH  063%=      5-min Rain = 0
KWVS 131205Z 32014G21KT 04/M03 A2991 RMK A01 T00391028  RH  062%=      5-min Rain = 0
KWVS 131210Z 32013KT 04/M03 A2991 RMK A01 T00421028  RH  061%=      5-min Rain = 0
KWVS 131215Z 32012KT 04/M03 A2991 RMK A01 T00421029  RH  060%=      5-min Rain = 0
KWVS 131220Z 33012KT 04/M03 A2991 RMK A01 T00391028  RH  062%=      5-min Rain = 0
KWVS 131225Z 33013KT 04/M03 A2991 RMK A01 T00381028  RH  062%=      5-min Rain = 0
KWVS 131230Z 33012KT 04/M03 A2991 RMK A01 T00371028  RH  063%=      5-min Rain = 0
KWVS 131235Z 34010G16KT 04/M03 A2991 RMK A01 T00371028  RH  063%=      5-min Rain = 0
KWVS 131240Z 33009KT 04/M03 A2991 RMK A01 T00371027  RH  063%=      5-min Rain = 0
KWVS 131245Z 31010G15KT 04/M03 A2991 RMK A01 T00381027  RH  063%=      5-min Rain = 0
KWVS 131250Z 31013KT 04/M03 A299 RMK A01 T00421026  RH  062%=      5-min Rain = 0
KWVS 131255Z 32012KT 04/M03 A299 RMK A01 T00441027  RH  061%=      5-min Rain = 0
KWVS 131300Z 33010KT 05/M03 A299 RMK A01 T00461026  RH  060%=      5-min Rain = 0
KWVS 131305Z 35010KT 05/M03 A2991 RMK A01 T00471026  RH  060%=      5-min Rain = 0
KWVS 131310Z 34011KT 05/M03 A2991 RMK A01 T00511026  RH  058%=      5-min Rain = 0
KWVS 131315Z 33007KT 05/M03 A2992 RMK A01 T00521026  RH  058%=      5-min Rain = 0
KWVS 131320Z 35006KT 05/M03 A2992 RMK A01 T00501025  RH  059%=      5-min Rain = 0
KWVS 131325Z 35008KT 05/M03 A2991 RMK A01 T00491025  RH  059%=      5-min Rain = 0
KWVS 131330Z 35008KT 05/M02 A2991 RMK A01 T00511024  RH  059%=      5-min Rain = 0
KWVS 131335Z 35008KT 05/M02 A2992 RMK A01 T00511024  RH  059%=      5-min Rain = 0
KWVS 131340Z 35008KT 05/M02 A2992 RMK A01 T00521024  RH  058%=      5-min Rain = 0
KWVS 131345Z 34007KT 05/M02 A2991 RMK A01 T00501024  RH  059%=      5-min Rain = 0
KWVS 131350Z 33007KT 05/M02 A2992 RMK A01 T00501024  RH  059%=      5-min Rain = 0
KWVS 131355Z 33010KT 06/M02 A2992 RMK A01 T00561022  RH  058%=      5-min Rain = 0
KWVS 131400Z 33009KT 06/M02 A2992 RMK A01 T00581022  RH  057%=      5-min Rain = 0
KWVS 131405Z 34008KT 06/M02 A2992 RMK A01 T00601022  RH  056%=      5-min Rain = 0
KWVS 131410Z 35007KT 06/M02 A2992 RMK A01 T00571022  RH  057%=      5-min Rain = 0
KWVS 131415Z 35007KT 06/M02 A2992 RMK A01 T00551021  RH  058%=      5-min Rain = 0
KWVS 131420Z 34005KT 06/M02 A2992 RMK A01 T00581021  RH  057%=      5-min Rain = 0
KWVS 131425Z 29003KT 07/M02 A2992 RMK A01 T00661020  RH  055%=      5-min Rain = 0
KWVS 131430Z 30007G18KT 08/M02 A2992 RMK A01 T00761019  RH  051%=      5-min Rain = 0
KWVS 131435Z 32011KT 08/M02 A2993 RMK A01 T00811019  RH  050%=      5-min Rain = 0
KWVS 131440Z 32010G17KT 08/M02 A2993 RMK A01 T00821018  RH  050%=      5-min Rain = 0
KWVS 131445Z 31013G20KT 08/M02 A2993 RMK A01 T00841019  RH  049%=      5-min Rain = 0
KWVS 131450Z 31015G20KT 08/M02 A2993 RMK A01 T00841019  RH  049%=      5-min Rain = 0
KWVS 131455Z 30018G24KT 09/M02 A2993 RMK A01 T00851018  RH  049%=      5-min Rain = 0
KWVS 131500Z 30018G24KT 09/M02 A2993 RMK A01 T00881017  RH  048%=      5-min Rain = 0
KWVS 131505Z 30018G26KT 09/M02 A2992 RMK A01 T00921017  RH  047%=      5-min Rain = 0
KWVS 131510Z 30019G26KT 09/M02 A2992 RMK A01 T00911016  RH  047%=      5-min Rain = 0
KWVS 131515Z 30021G28KT 09/M02 A2992 RMK A01 T00921016  RH  047%=      5-min Rain = 0
KWVS 131520Z 30021G26KT 09/M01 A2992 RMK A01 T00941014  RH  047%=      5-min Rain = 0
KWVS 131525Z 30021KT 10/M01 A2992 RMK A01 T00991013  RH  046%=      5-min Rain = 0
KWVS 131530Z 30020G25KT 10/M01 A2992 RMK A01 T01021012  RH  046%=      5-min Rain = 0
KWVS 131535Z 30021KT 11/M01 A2992 RMK A01 T01051012  RH  045%=      5-min Rain = 0
KWVS 131540Z 30020G25KT 11/M01 A2992 RMK A01 T01091010  RH  044%=      5-min Rain = 0
KWVS 131545Z 30020KT 11/M01 A2992 RMK A01 T01141010  RH  043%=      5-min Rain = 0
KWVS 131550Z 30021KT 12/M01 A2992 RMK A01 T01151011  RH  042%=      5-min Rain = 0
KWVS 131555Z 30017G23KT 12/M01 A2993 RMK A01 T01211008  RH  041%=      5-min Rain = 0
KWVS 131600Z 30020G25KT 13/M01 A2993 RMK A01 T01251008  RH  040%=      5-min Rain = 0
KWVS 131605Z 30019KT 13/M01 A2993 RMK A01 T01271008  RH  040%=      5-min Rain = 0
KWVS 131610Z 30019KT 13/M01 A2993 RMK A01 T01311007  RH  039%=      5-min Rain = 0
KWVS 131615Z 30017G22KT 13/M01 A2993 RMK A01 T01331007  RH  038%=      5-min Rain = 0
KWVS 131620Z 30019KT 14/M01 A2992 RMK A01 T01361007  RH  038%=      5-min Rain = 0
KWVS 131625Z 30018KT 14/M01 A2992 RMK A01 T01371006  RH  038%=      5-min Rain = 0
KWVS 131630Z 31016KT 14/M01 A2992 RMK A01 T01411005  RH  037%=      5-min Rain = 0
KWVS 131635Z 30014G19KT 15/M00 A2992 RMK A01 T01471003  RH  036%=      5-min Rain = 0
KWVS 131640Z 30017G22KT 15/M01 A2992 RMK A01 T01501005  RH  035%=      5-min Rain = 0
KWVS 131645Z 30016G22KT 15/M00 A2992 RMK A01 T01531003  RH  035%=      5-min Rain = 0
KWVS 131650Z 30019G25KT 15/M01 A2991 RMK A01 T01541005  RH  034%=      5-min Rain = 0
KWVS 131655Z 30019KT 15/M01 A2991 RMK A01 T01541005  RH  034%=      5-min Rain = 0
KWVS 131700Z 30019KT 16/M00 A2992 RMK A01 T01571004  RH  034%=      5-min Rain = 0
KWVS 131705Z 30019KT 16/M00 A2991 RMK A01 T01591004  RH  033%=      5-min Rain = 0
KWVS 131710Z 30017G22KT 16/M00 A2991 RMK A01 T01621003  RH  033%=      5-min Rain = 0
KWVS 131715Z 30017G25KT 17/M00 A2991 RMK A01 T01701002  RH  031%=      5-min Rain = 0
KWVS 131720Z 30017G22KT 17/M00 A2991 RMK A01 T01721002  RH  031%=      5-min Rain = 0
KWVS 131725Z 30016G22KT 17/00 A2991 RMK A01 T01730000  RH  031%=      5-min Rain = 0
KWVS 131730Z 30015G20KT 18/00 A2991 RMK A01 T01760002  RH  031%=      5-min Rain = 0
KWVS 131735Z 29019G25KT 18/M00 A2991 RMK A01 T01761001  RH  031%=      5-min Rain = 0
KWVS 131740Z 29019G26KT 18/M00 A2991 RMK A01 T01751001  RH  031%=      5-min Rain = 0
KWVS 131745Z 29017KT 18/00 A299 RMK A01 T01770000  RH  031%=      5-min Rain = 0
KWVS 131750Z 30017G22KT 18/00 A299 RMK A01 T01820001  RH  030%=      5-min Rain = 0
KWVS 131755Z 30016G22KT 18/00 A299 RMK A01 T01840002  RH  030%=      5-min Rain = 0
KWVS 131800Z 28018KT 19/00 A299 RMK A01 T01870001  RH  029%=      5-min Rain = 0
KWVS 131805Z 29016G22KT 19/00 A2989 RMK A01 T01870000  RH  029%=      5-min Rain = 0
KWVS 131810Z 28016G21KT 19/00 A2988 RMK A01 T01910000  RH  028%=      5-min Rain = 0
KWVS 131815Z 29018G23KT 19/M00 A2988 RMK A01 T01921001  RH  028%=      5-min Rain = 0
KWVS 131820Z 30019G27KT 20/M00 A2988 RMK A01 T01951002  RH  027%=      5-min Rain = 0
KWVS 131825Z 30021KT 19/M00 A2988 RMK A01 T01941004  RH  027%=      5-min Rain = 0
KWVS 131830Z 29017G24KT 20/M00 A2988 RMK A01 T01991003  RH  026%=      5-min Rain = 0
KWVS 131835Z 29021G28KT 20/M01 A2987 RMK A01 T02001006  RH  025%=      5-min Rain = 0
KWVS 131840Z 30019G25KT 20/M01 A2987 RMK A01 T01991006  RH  026%=      5-min Rain = 0
KWVS 131845Z 29018G25KT 20/M00 A2986 RMK A01 T02041003  RH  025%=      5-min Rain = 0
KWVS 131850Z 29021G27KT 20/M01 A2986 RMK A01 T02041006  RH  025%=      5-min Rain = 0
KWVS 131855Z 30020G25KT 21/M01 A2985 RMK A01 T02061006  RH  024%=      5-min Rain = 0
KWVS 131900Z 30019G27KT 21/M01 A2985 RMK A01 T02081005  RH  024%=      5-min Rain = 0
KWVS 131905Z 30022G28KT 21/M01 A2985 RMK A01 T02081008  RH  024%=      5-min Rain = 0
KWVS 131910Z 29021G29KT 21/M01 A2985 RMK A01 T02051008  RH  024%=      5-min Rain = 0
KWVS 131915Z 28022G27KT 21/M01 A2985 RMK A01 T02051009  RH  024%=      5-min Rain = 0
KWVS 131920Z 29022G27KT 21/M01 A2985 RMK A01 T02061008  RH  024%=      5-min Rain = 0
KWVS 131925Z 30021G28KT 21/M01 A2985 RMK A01 T02081005  RH  024%=      5-min Rain = 0
KWVS 131930Z 31021G28KT 21/M01 A2985 RMK A01 T02081006  RH  024%=      5-min Rain = 0
KWVS 131935Z 31022G30KT 21/M01 A2985 RMK A01 T02071006  RH  024%=      5-min Rain = 0
KWVS 131940Z 30020G26KT 21/M01 A2985 RMK A01 T02071006  RH  024%=      5-min Rain = 0
KWVS 131945Z 30023G30KT 21/M01 A2985 RMK A01 T02051007  RH  024%=      5-min Rain = 0
KWVS 131950Z 30020G25KT 20/M01 A2985 RMK A01 T02021005  RH  025%=      5-min Rain = 0
KWVS 131955Z 30020G25KT 21/M01 A2984 RMK A01 T02051005  RH  025%=      5-min Rain = 0
KWVS 132000Z 31021KT 20/M01 A2984 RMK A01 T02031006  RH  025%=      5-min Rain = 0
KWVS 132005Z 31019G26KT 20/M00 A2984 RMK A01 T02041003  RH  025%=      5-min Rain = 0
KWVS 132010Z 32022KT 20/M00 A2984 RMK A01 T02021004  RH  025%=      5-min Rain = 0
KWVS 132015Z 32020G25KT 20/M01 A2984 RMK A01 T01991005  RH  026%=      5-min Rain = 0
KWVS 132020Z 30020G25KT 20/M00 A2983 RMK A01 T01981002  RH  026%=      5-min Rain = 0
KWVS 132025Z 30019G24KT 20/M00 A2983 RMK A01 T02001001  RH  026%=      5-min Rain = 0
KWVS 132030Z 30019G24KT 20/M00 A2983 RMK A01 T02031001  RH  026%=      5-min Rain = 0
KWVS 132035Z 30018G26KT 20/00 A2983 RMK A01 T020400-0  RH  026%=      5-min Rain = 0
KWVS 132040Z 30019G25KT 20/00 A2983 RMK A01 T020100-0  RH  026%=      5-min Rain = 0
KWVS 132045Z 31018G24KT 20/M00 A2983 RMK A01 T02011003  RH  026%=      5-min Rain = 0
KWVS 132050Z 31021G27KT 20/M01 A2983 RMK A01 T02011007  RH  025%=      5-min Rain = 0
KWVS 132055Z 30018G24KT 20/M01 A2983 RMK A01 T02021006  RH  025%=      5-min Rain = 0
KWVS 132100Z 30016G23KT 21/M00 A2983 RMK A01 T02051004  RH  025%=      5-min Rain = 0
KWVS 132105Z 30019G26KT 20/M01 A2983 RMK A01 T02041005  RH  025%=      5-min Rain = 0
KWVS 132110Z 30017KT 20/M01 A2983 RMK A01 T02041005  RH  025%=      5-min Rain = 0
KWVS 132115Z 31017G23KT 21/M00 A2983 RMK A01 T02061003  RH  025%=      5-min Rain = 0
KWVS 132120Z 30015G20KT 21/M00 A2984 RMK A01 T02091003  RH  025%=      5-min Rain = 0
KWVS 132125Z 31017G24KT 21/M01 A2983 RMK A01 T02111005  RH  024%=      5-min Rain = 0
KWVS 132130Z 31016G22KT 21/M01 A2983 RMK A01 T02091008  RH  023%=      5-min Rain = 0
KWVS 132135Z 30015G22KT 21/M01 A2983 RMK A01 T02141008  RH  023%=      5-min Rain = 0
KWVS 132140Z 30018G23KT 21/M01 A2983 RMK A01 T02121014  RH  022%=      5-min Rain = 0
KWVS 132145Z 30016KT 21/M01 A2983 RMK A01 T02111013  RH  022%=      5-min Rain = 0
KWVS 132150Z 29014G20KT 21/M01 A2983 RMK A01 T02101011  RH  023%=      5-min Rain = 0
KWVS 132155Z 29014G19KT 21/M01 A2983 RMK A01 T02051011  RH  024%=      5-min Rain = 0
KWVS 132200Z 30014KT 21/M01 A2983 RMK A01 T02051009  RH  024%=      5-min Rain = 0
KWVS 132205Z 30015KT 21/M01 A2983 RMK A01 T02051010  RH  024%=      5-min Rain = 0
KWVS 132210Z 32012G17KT 21/M01 A2983 RMK A01 T02051011  RH  024%=      5-min Rain = 0
KWVS 132215Z 31012KT 21/M01 A2983 RMK A01 T02061010  RH  024%=      5-min Rain = 0
KWVS 132220Z 31012KT 21/M02 A2983 RMK A01 T02071016  RH  022%=      5-min Rain = 0
KWVS 132225Z 31011G16KT 21/M02 A2983 RMK A01 T02081016  RH  022%=      5-min Rain = 0
KWVS 132230Z 30012KT 21/M02 A2984 RMK A01 T02071018  RH  022%=      5-min Rain = 0
KWVS 132235Z 30013KT 21/M02 A2984 RMK A01 T02071021  RH  022%=      5-min Rain = 0
KWVS 132240Z 30013KT 21/M02 A2984 RMK A01 T02051022  RH  022%=      5-min Rain = 0
KWVS 132245Z 30014G19KT 20/M03 A2984 RMK A01 T02041026  RH  021%=      5-min Rain = 0
KWVS 132250Z 30013KT 20/M03 A2984 RMK A01 T02021025  RH  022%=      5-min Rain = 0
KWVS 132255Z 29013KT 20/M03 A2984 RMK A01 T02011025  RH  022%=      5-min Rain = 0
KWVS 132300Z 29011KT 20/M02 A2984 RMK A01 T01991024  RH  022%=      5-min Rain = 0
KWVS 132305Z 29009KT 20/M02 A2984 RMK A01 T01961022  RH  023%=      5-min Rain = 0
KWVS 132310Z 29009KT 19/M02 A2985 RMK A01 T01931022  RH  023%=      5-min Rain = 0
KWVS 132315Z 29009KT 19/M02 A2985 RMK A01 T01891021  RH  024%=      5-min Rain = 0
KWVS 132320Z 29011KT 19/M02 A2985 RMK A01 T01871021  RH  025%=      5-min Rain = 0
KWVS 132325Z 30011KT 18/M02 A2985 RMK A01 T01841019  RH  025%=      5-min Rain = 0
KWVS 132330Z 30011KT 18/M02 A2985 RMK A01 T01791018  RH  026%=      5-min Rain = 0
KWVS 132335Z 30010KT 17/M02 A2985 RMK A01 T01731018  RH  027%=      5-min Rain = 0
KWVS 132340Z 30009KT 17/M02 A2984 RMK A01 T01651018  RH  029%=      5-min Rain = 0
KWVS 132345Z 30009KT 16/M02 A2984 RMK A01 T01591018  RH  030%=      5-min Rain = 0
KWVS 132350Z 31009KT 15/M02 A2984 RMK A01 T01491018  RH  032%=      5-min Rain = 0
KWVS 132355Z 32010KT 15/M02 A2984 RMK A01 T01481018  RH  032%=      5-min Rain = 0
KWVS 140000Z 31010KT 15/M02 A2984 RMK A01 T01471018  RH  032%=      5-min Rain = 0
KWVS 140005Z 30009KT 14/M02 A2984 RMK A01 T01401018  RH  034%=      5-min Rain = 0
KWVS 140010Z 30009KT 14/M02 A2985 RMK A01 T01351018  RH  035%=      5-min Rain = 0
KWVS 140015Z 29009KT 13/M02 A2985 RMK A01 T01341019  RH  035%=      5-min Rain = 0
KWVS 140020Z 30009KT 14/M02 A2985 RMK A01 T01361019  RH  034%=      5-min Rain = 0
KWVS 140025Z 30010KT 14/M02 A2985 RMK A01 T01371019  RH  034%=      5-min Rain = 0
KWVS 140030Z 30009KT 13/M02 A2985 RMK A01 T01321019  RH  035%=      5-min Rain = 0
KWVS 140035Z 30010KT 13/M02 A2985 RMK A01 T01281019  RH  036%=      5-min Rain = 0
KWVS 140040Z 31010KT 13/M02 A2985 RMK A01 T01301018  RH  036%=      5-min Rain = 0
KWVS 140045Z 32011KT 13/M02 A2985 RMK A01 T01321017  RH  036%=      5-min Rain = 0
KWVS 140050Z 32010KT 13/M02 A2985 RMK A01 T01341017  RH  035%=      5-min Rain = 0
KWVS 140055Z 33009KT 13/M02 A2985 RMK A01 T01321019  RH  035%=      5-min Rain = 0
KWVS 140100Z 33008KT 13/M02 A2985 RMK A01 T01271020  RH  036%=      5-min Rain = 0
KWVS 140105Z 33008KT 12/M02 A2985 RMK A01 T01231020  RH  037%=      5-min Rain = 0
KWVS 140110Z 33007KT 12/M02 A2985 RMK A01 T01211020  RH  038%=      5-min Rain = 0
KWVS 140115Z 33008KT 12/M02 A2985 RMK A01 T01151020  RH  039%=      5-min Rain = 0
KWVS 140120Z 32008KT 11/M02 A2985 RMK A01 T01131019  RH  040%=      5-min Rain = 0
KWVS 140125Z 32008KT 12/M02 A2986 RMK A01 T01161019  RH  039%=      5-min Rain = 0
KWVS 140130Z 31007KT 12/M02 A2986 RMK A01 T01161019  RH  039%=      5-min Rain = 0
KWVS 140135Z 32007KT 12/M02 A2986 RMK A01 T01151019  RH  039%=      5-min Rain = 0
KWVS 140140Z 32007KT 11/M02 A2986 RMK A01 T01141019  RH  040%=      5-min Rain = 0
KWVS 140145Z 31009KT 11/M02 A2987 RMK A01 T01131018  RH  041%=      5-min Rain = 0
KWVS 140150Z 31009KT 11/M02 A2987 RMK A01 T01131016  RH  041%=      5-min Rain = 0
KWVS 140155Z 33008KT 11/M02 A2987 RMK A01 T01141016  RH  041%=      5-min Rain = 0
KWVS 140200Z 01013KT 11/M02 A2988 RMK A01 T01061017  RH  043%=      5-min Rain = 0
KWVS 140205Z 35011KT 10/M02 A2989 RMK A01 T01041016  RH  043%=      5-min Rain = 0
KWVS 140210Z 36011KT 11/M02 A2989 RMK A01 T01091020  RH  041%=      5-min Rain = 0
KWVS 140215Z 35011KT 11/M02 A2989 RMK A01 T01081020  RH  041%=      5-min Rain = 0
KWVS 140220Z 34011KT 10/M02 A2989 RMK A01 T01041021  RH  042%=      5-min Rain = 0
KWVS 140225Z 35008KT 10/M02 A2989 RMK A01 T01031021  RH  042%=      5-min Rain = 0
KWVS 140230Z 33008KT 10/M02 A2989 RMK A01 T00991022  RH  043%=      5-min Rain = 0
KWVS 140235Z 32006KT 10/M02 A2989 RMK A01 T00971021  RH  044%=      5-min Rain = 0
KWVS 140240Z 30005KT 10/M02 A299 RMK A01 T00991020  RH  044%=      5-min Rain = 0
KWVS 140245Z 32005KT 10/M02 A299 RMK A01 T01011020  RH  043%=      5-min Rain = 0
KWVS 140250Z 33006KT 10/M02 A299 RMK A01 T01041022  RH  042%=      5-min Rain = 0
KWVS 140255Z 35007KT 10/M02 A299 RMK A01 T01041022  RH  042%=      5-min Rain = 0
KWVS 140300Z 36007KT 11/M02 A299 RMK A01 T01111022  RH  040%=      5-min Rain = 0
KWVS 140305Z 34007KT 11/M02 A299 RMK A01 T01051023  RH  041%=      5-min Rain = 0
KWVS 140310Z 35006KT 11/M02 A2989 RMK A01 T01061023  RH  041%=      5-min Rain = 0
KWVS 140315Z 35006KT 11/M02 A2989 RMK A01 T01101024  RH  039%=      5-min Rain = 0
KWVS 140320Z 32006KT 11/M02 A299 RMK A01 T01091024  RH  040%=      5-min Rain = 0
KWVS 140325Z 34005KT 11/M02 A2989 RMK A01 T01051024  RH  041%=      5-min Rain = 0
KWVS 140330Z 32004KT 11/M02 A2989 RMK A01 T01091024  RH  040%=      5-min Rain = 0
KWVS 140335Z 32004KT 11/M02 A2988 RMK A01 T01121024  RH  039%=      5-min Rain = 0
KWVS 140340Z 33006KT 11/M03 A2989 RMK A01 T01091025  RH  039%=      5-min Rain = 0
KWVS 140345Z 32006KT 11/M03 A2989 RMK A01 T01101025  RH  039%=      5-min Rain = 0
KWVS 140350Z 33005KT 11/M03 A2989 RMK A01 T01061025  RH  040%=      5-min Rain = 0
KWVS 140355Z 33007KT 11/M03 A2989 RMK A01 T01051025  RH  040%=      5-min Rain = 0
KWVS 140400Z 32007KT 10/M02 A2989 RMK A01 T01011024  RH  042%=      5-min Rain = 0
KWVS 140405Z 32006KT 10/M02 A299 RMK A01 T00961024  RH  043%=      5-min Rain = 0
KWVS 140410Z 32007KT 10/M02 A2991 RMK A01 T00981024  RH  043%=      5-min Rain = 0
KWVS 140415Z 33007KT 09/M02 A299 RMK A01 T00941024  RH  044%=      5-min Rain = 0
KWVS 140420Z 34007KT 10/M03 A299 RMK A01 T01031025  RH  041%=      5-min Rain = 0
KWVS 140425Z 33008KT 10/M02 A299 RMK A01 T00951024  RH  044%=      5-min Rain = 0
KWVS 140430Z 32006KT 09/M02 A299 RMK A01 T00921024  RH  044%=      5-min Rain = 0
KWVS 140435Z 32007KT 09/M03 A299 RMK A01 T00941025  RH  043%=      5-min Rain = 0
KWVS 140440Z 32005KT 10/M03 A2989 RMK A01 T00971025  RH  043%=      5-min Rain = 0
KWVS 140445Z 33005KT 10/M03 A2989 RMK A01 T01041025  RH  041%=      5-min Rain = 0
KWVS 140450Z 32004KT 11/M03 A2989 RMK A01 T01101026  RH  039%=      5-min Rain = 0
KWVS 140455Z 31005KT 11/M03 A2989 RMK A01 T01141027  RH  037%=      5-min Rain = 0
KWVS 140500Z 33004KT 10/M03 A2989 RMK A01 T01011026  RH  041%=      5-min Rain = 0
KWVS 140505Z 31005KT 10/M03 A2989 RMK A01 T00991026  RH  042%=      5-min Rain = 0
KWVS 140510Z 33007KT 10/M03 A2989 RMK A01 T01001026  RH  041%=      5-min Rain = 0
KWVS 140515Z 33008KT 09/M03 A2989 RMK A01 T00911026  RH  044%=      5-min Rain = 0
KWVS 140520Z 35011KT 08/M02 A2989 RMK A01 T00751024  RH  050%=      5-min Rain = 0
KWVS 140525Z 36012KT 07/M02 A2989 RMK A01 T00651024  RH  053%=      5-min Rain = 0
KWVS 140530Z 01012KT 06/M02 A2989 RMK A01 T00621023  RH  055%=      5-min Rain = 0
KWVS 140535Z 00013KT 06/M02 A2989 RMK A01 T00611023  RH  055%=      5-min Rain = 0
KWVS 140540Z 35011KT 06/M02 A299 RMK A01 T00641023  RH  054%=      5-min Rain = 0
KWVS 140545Z 35010KT 06/M02 A299 RMK A01 T00631023  RH  054%=      5-min Rain = 0
KWVS 140550Z 35010KT 06/M02 A299 RMK A01 T00641023  RH  054%=      5-min Rain = 0
KWVS 140555Z 36011KT 07/M02 A299 RMK A01 T00681022  RH  053%=      5-min Rain = 0

Page generated in 0.0085 seconds.